Jump to content

  •  

FEDEX FLIGHT FX7054 FLOWN ON 11-17-2017 BY CAPTAIN DEREK ROGY

Pilot StatsCaptain Derek Rogy (LDP86) • 1,506.2 total hours • 807 total flights [View Logbook]
FLIGHT DETAILS
StatusReceived and approved on 2017-11-17 at 18:11:57
Origin AirportHalifax Intl (CYHZ) • Halifax, Nova Scotia, Canada (477 feet MSL)
Filed Flight PlanCYHZ VOGET CYQM
Destination AirportGreater Moncton Intl (CYQM) • Moncton, New Brunswick, Canada (232 feet MSL)
Alternate AirportHalifax Intl (CYHZ) • Halifax, Nova Scotia, Canada (477 feet MSL)
AirlineFedEx
AircraftBoeing 757-200 (752 / B757-200)
FS Aircraft UsedQWSim Boeing 757-200F FedEx WV
Cruising AltitudeFL120
Distance Flown89 nautical miles
Passengers Onboard178 passengers (95.70% full)
DEPARTURE DETAILS
Time Out18:55:46
Taxi Data177,672 lbs total with 20,638 lbs of fuel onboard
Takeoff Data19:03:30 (8 minutes after leaving gate/ramp) • 176,844 lbs total • 5° pitch at 150 knots
Departure METARCYHZ 172200Z 28016G26KT 15SM -RA OVC021 04/03 A2940 RMK SC8 SLP962
ARRIVAL DETAILS
Landing Data19:30:09 • 172,174 lbs total • 5° pitch doing 130 knots at a rate of -190.70 feet/minute with 14,933 lbs of fuel onboard
Time In19:32:25 (2 minutes after landing)
Ramp Weight171,967 lbs total
Total Fuel Used5,705 lbs
Total Block Time00:37:27 (0.6 hours) while 10 minutes were spent on the ground
Arrival METARCYQM 172300Z 26019G26KT 6SM -SHSN BKN006 OVC010 01/00 A2941 RMK SF7SC1 CVCTV CLD EMBD SLP962
MISCELLANEOUS DETAILS
LiveDISPATCH Version4.8.3.1
FS Version
FSUIPC Version4.95
OS VersionWindows 7 32-bit
Screen Resolution1920 x 1200
Pilot's CommentsNo Comments Reported
FLIGHT MAP